Time;durP1;ratioP1;P1;durP2;ratioP2;P2;SDS_P1;SDS_P2;PMS_P1;PMS_P2;Temp;Humidity;BMP_temperature;BMP_pressure;BME280_temperature;BME280_humidity;BME280_pressure;Samples;Min_cycle;Max_cycle;Signal;HPM_P1;HPM_P2
2023/10/15 00:00:51;;;;;;;14.90;3.60;;;;;;;15.14;61.77;100484.73;107571;1251;111021;-63
2023/10/15 00:03:40;;;;;;;11.40;3.80;;;;;;;15.09;61.78;100483.48;107582;1253;109450;-63
2023/10/15 00:06:09;;;;;;;11.60;3.30;;;;;;;15.06;62.29;100481.09;107510;1253;108309;-63
2023/10/15 00:08:37;;;;;;;17.10;3.50;;;;;;;15.02;62.26;100479.00;107535;1253;96468;-63
2023/10/15 00:11:12;;;;;;;7.60;3.20;;;;;;;15.00;62.32;100475.11;107581;1255;96474;-64
2023/10/15 00:13:41;;;;;;;6.80;3.80;;;;;;;14.98;62.52;100475.11;107592;1255;109469;-63
2023/10/15 00:16:18;;;;;;;18.20;3.60;;;;;;;14.99;62.52;100471.73;107547;1254;109606;-63
2023/10/15 00:18:48;;;;;;;15.70;3.60;;;;;;;14.97;62.68;100473.96;107532;1256;109889;-63
2023/10/15 00:21:16;;;;;;;14.30;4.20;;;;;;;14.92;62.80;100477.49;107529;1254;96378;-64
2023/10/15 00:23:46;;;;;;;8.20;3.10;;;;;;;14.86;62.93;100477.94;107582;1255;96367;-63
2023/10/15 00:26:15;;;;;;;14.30;3.50;;;;;;;14.83;63.13;100475.88;107568;1253;110008;-63
2023/10/15 00:28:49;;;;;;;12.90;3.80;;;;;;;14.79;62.82;100474.43;107585;1251;109913;-63
2023/10/15 00:31:18;;;;;;;11.60;4.10;;;;;;;14.77;63.05;100470.10;107517;1254;107266;-64
2023/10/15 00:33:47;;;;;;;13.70;5.80;;;;;;;14.72;63.31;100476.23;107588;1256;96390;-63
2023/10/15 00:36:15;;;;;;;15.30;3.20;;;;;;;14.65;63.53;100475.34;107544;1256;97035;-62
2023/10/15 00:38:44;;;;;;;13.00;3.70;;;;;;;14.63;63.78;100475.53;107550;1255;110427;-64
2023/10/15 00:41:14;;;;;;;13.70;4.10;;;;;;;14.63;63.96;100471.37;107587;1254;109743;-64
2023/10/15 00:43:54;;;;;;;19.40;4.30;;;;;;;14.63;64.03;100471.05;107585;1254;107904;-64
2023/10/15 00:46:26;;;;;;;10.20;3.20;;;;;;;14.62;64.20;100473.09;107546;1255;96601;-63
2023/10/15 00:48:56;;;;;;;12.50;4.00;;;;;;;14.62;64.33;100465.71;107594;1256;96626;-62
2023/10/15 00:51:25;;;;;;;5.80;3.90;;;;;;;14.62;64.33;100466.44;107565;1257;110836;-64
2023/10/15 00:53:58;;;;;;;12.00;2.90;;;;;;;14.59;64.47;100467.21;107602;1256;108481;-64
2023/10/15 00:56:35;;;;;;;9.70;3.30;;;;;;;14.57;64.56;100471.16;107484;1254;108223;-64
2023/10/15 00:59:08;;;;;;;17.20;3.40;;;;;;;14.54;64.61;100468.63;107552;1251;96649;-66
2023/10/15 01:01:42;;;;;;;12.50;3.20;;;;;;;14.51;64.72;100464.39;107508;1253;96356;-63
2023/10/15 01:04:15;;;;;;;13.30;3.70;;;;;;;14.49;64.70;100468.25;107613;1256;110975;-63
2023/10/15 01:06:46;;;;;;;12.90;3.30;;;;;;;14.44;64.69;100467.75;107573;1255;109707;-63
2023/10/15 01:09:36;;;;;;;8.80;3.50;;;;;;;14.42;64.89;100462.75;107575;1257;107159;-64
2023/10/15 01:12:19;;;;;;;12.10;3.90;;;;;;;14.34;65.97;100463.55;107540;1253;96514;-64
2023/10/15 01:14:48;;;;;;;15.30;2.90;;;;;;;14.24;65.73;100465.17;107606;1255;97048;-64
2023/10/15 01:17:16;;;;;;;8.50;2.90;;;;;;;14.23;65.96;100461.69;107580;1256;109766;-63
2023/10/15 01:19:45;;;;;;;12.10;3.60;;;;;;;14.23;66.08;100459.93;107576;1255;109474;-64
2023/10/15 01:22:17;;;;;;;11.70;3.30;;;;;;;14.22;66.23;100460.91;107431;1255;108194;-63
2023/10/15 01:24:51;;;;;;;10.60;3.20;;;;;;;14.22;66.22;100462.84;107551;1255;96479;-63
2023/10/15 01:27:27;;;;;;;;;;;;;;;14.24;66.56;100461.39;107599;1256;96577;-63
2023/10/15 01:29:58;;;;;;;7.70;3.00;;;;;;;14.25;66.62;100456.99;107634;1256;109572;-63
2023/10/15 01:32:31;;;;;;;11.70;3.00;;;;;;;14.27;66.68;100456.02;107524;1251;110050;-63
2023/10/15 01:35:01;;;;;;;11.50;3.70;;;;;;;14.29;66.65;100454.77;107579;1254;106981;-62
2023/10/15 01:37:30;;;;;;;7.00;2.80;;;;;;;14.29;66.61;100459.13;107544;1254;96556;-63
2023/10/15 01:40:44;;;;;;;6.60;2.70;;;;;;;14.29;66.68;100456.25;107600;1251;96580;-63
2023/10/15 01:42:54;;;;;;;17.10;3.30;;;;;;;14.28;66.94;100456.63;107508;1256;109635;-63
2023/10/15 01:45:31;;;;;;;8.70;2.80;;;;;;;14.30;66.98;100458.08;107552;1253;109757;-64
2023/10/15 01:48:05;;;;;;;15.90;2.80;;;;;;;14.33;66.99;100459.02;107539;1254;108014;-64
2023/10/15 01:50:49;;;;;;;9.00;2.60;;;;;;;14.34;66.95;100459.06;107565;1255;96459;-64
2023/10/15 01:53:23;;;;;;;18.80;3.50;;;;;;;14.36;67.04;100458.63;107566;1253;96503;-64
2023/10/15 01:55:59;;;;;;;5.60;2.50;;;;;;;14.39;67.14;100461.05;107636;1251;109989;-62
2023/10/15 01:58:31;;;;;;;8.20;3.80;;;;;;;14.41;67.11;100455.61;107599;1253;109718;-63
2023/10/15 02:01:19;;;;;;;9.00;3.10;;;;;;;14.43;67.18;100463.02;107528;1254;109074;-62
2023/10/15 02:03:48;;;;;;;12.90;2.90;;;;;;;14.42;67.38;100465.22;107598;1256;96566;-64
2023/10/15 02:06:19;;;;;;;5.60;2.80;;;;;;;14.40;67.51;100467.05;107623;1253;96422;-63
2023/10/15 02:08:51;;;;;;;6.60;2.50;;;;;;;14.42;67.75;100464.38;107515;1254;110977;-63
2023/10/15 02:11:23;;;;;;;7.90;2.80;;;;;;;14.38;67.80;100459.33;107550;1254;108973;-65
2023/10/15 02:13:51;;;;;;;12.20;3.00;;;;;;;14.36;67.82;100455.37;107642;1253;108169;-62
2023/10/15 02:16:29;;;;;;;8.70;3.20;;;;;;;14.36;68.04;100451.41;107531;1257;96467;-63
2023/10/15 02:18:59;;;;;;;16.40;3.20;;;;;;;14.39;68.40;100453.11;107602;1254;96737;-63
2023/10/15 02:21:35;;;;;;;5.10;2.20;;;;;;;14.40;68.36;100450.77;107641;1252;110553;-63
2023/10/15 02:24:08;;;;;;;13.00;2.90;;;;;;;14.42;68.40;100446.67;107604;1254;108746;-63
2023/10/15 02:26:37;;;;;;;10.70;4.40;;;;;;;14.43;68.53;100448.76;107557;1256;108146;-63
2023/10/15 02:29:27;;;;;;;5.90;3.40;;;;;;;14.43;68.57;100446.44;107550;1254;96625;-63
2023/10/15 02:34:45;;;;;;;9.70;3.20;;;;;;;14.42;68.75;100446.30;107571;1251;110512;-63
2023/10/15 02:37:18;;;;;;;12.10;6.50;;;;;;;14.41;68.79;100451.27;107582;1251;108719;-63
2023/10/15 02:39:52;;;;;;;8.80;2.70;;;;;;;14.40;69.05;100447.52;107581;1256;107281;-62
2023/10/15 02:42:31;;;;;;;14.00;3.20;;;;;;;14.39;69.16;100444.78;107603;1255;96513;-62
2023/10/15 02:45:01;;;;;;;9.60;2.90;;;;;;;14.38;69.35;100449.01;107562;1254;96987;-63
2023/10/15 02:47:31;;;;;;;13.90;3.10;;;;;;;14.36;69.39;100449.83;107562;1254;109130;-63
2023/10/15 02:50:03;;;;;;;6.30;3.10;;;;;;;14.34;69.46;100449.35;107556;1254;108715;-63
2023/10/15 02:52:35;;;;;;;6.00;3.80;;;;;;;14.31;69.52;100445.67;107576;1254;108576;-62
2023/10/15 02:55:10;;;;;;;14.30;3.90;;;;;;;14.29;69.58;100446.98;107598;1255;96547;-63
2023/10/15 02:57:40;;;;;;;10.60;2.90;;;;;;;14.27;69.47;100447.76;107595;1252;96423;-62
2023/10/15 03:00:18;;;;;;;9.90;3.50;;;;;;;14.25;69.50;100444.75;107563;1254;109514;-63
2023/10/15 03:02:47;;;;;;;9.80;3.10;;;;;;;14.23;69.64;100442.41;107546;1254;109921;-62
2023/10/15 03:05:15;;;;;;;5.90;2.80;;;;;;;14.22;69.73;100442.27;107601;1256;106635;-63
2023/10/15 03:07:44;;;;;;;6.40;3.10;;;;;;;14.21;69.72;100435.21;107572;1253;96481;-63
2023/10/15 03:10:24;;;;;;;4.90;2.60;;;;;;;14.19;69.79;100436.91;107600;1253;98860;-64
2023/10/15 03:12:52;;;;;;;9.30;2.80;;;;;;;14.16;69.97;100441.57;107599;1254;110656;-64
2023/10/15 03:15:21;;;;;;;13.90;3.60;;;;;;;14.14;69.92;100443.02;107581;1253;109580;-64
2023/10/15 03:17:49;;;;;;;11.70;2.80;;;;;;;14.13;69.85;100440.64;107577;1255;108175;-64
2023/10/15 03:22:47;;;;;;;12.30;3.40;;;;;;;14.07;70.07;100435.95;107585;1251;97170;-63
2023/10/15 03:25:16;;;;;;;6.80;3.10;;;;;;;14.06;70.08;100440.64;107544;1251;109926;-63
2023/10/15 03:27:49;;;;;;;6.30;3.10;;;;;;;14.03;70.04;100436.11;107481;1251;110064;-63
2023/10/15 03:30:23;;;;;;;15.70;3.30;;;;;;;14.01;70.07;100432.20;107573;1251;107328;-64
2023/10/15 03:32:52;;;;;;;8.80;2.60;;;;;;;13.98;70.14;100434.48;107544;1253;96491;-62
2023/10/15 03:35:33;;;;;;;6.50;2.40;;;;;;;13.96;70.31;100432.73;107539;1254;96366;-62
2023/10/15 03:38:06;;;;;;;10.40;2.90;;;;;;;13.94;70.44;100430.63;107544;1253;110270;-63
2023/10/15 03:40:46;;;;;;;11.80;3.10;;;;;;;13.92;70.47;100430.73;107613;1254;111344;-64
2023/10/15 03:43:15;;;;;;;10.30;3.10;;;;;;;13.90;70.47;100426.09;107577;1256;108293;-63
2023/10/15 03:45:53;;;;;;;9.40;2.60;;;;;;;13.88;70.37;100429.45;107577;1253;96486;-63
2023/10/15 03:48:28;;;;;;;10.40;2.70;;;;;;;13.82;70.23;100424.90;107570;1253;96370;-63
2023/10/15 03:50:58;;;;;;;8.40;3.10;;;;;;;13.76;70.22;100424.67;107623;1256;110531;-63
2023/10/15 03:53:28;;;;;;;10.30;3.00;;;;;;;13.72;70.29;100423.20;107592;1254;110266;-63
2023/10/15 03:56:04;;;;;;;5.00;2.60;;;;;;;13.67;70.13;100423.23;107619;1251;108191;-63
2023/10/15 03:58:32;;;;;;;9.20;2.90;;;;;;;13.62;70.10;100422.61;107591;1256;96495;-61
2023/10/15 04:01:22;;;;;;;6.50;3.00;;;;;;;13.57;70.02;100424.92;107557;1254;97093;-63
2023/10/15 04:03:50;;;;;;;7.60;2.90;;;;;;;13.53;70.04;100426.13;107648;1254;109510;-63
2023/10/15 04:06:20;;;;;;;11.60;3.00;;;;;;;13.49;70.22;100428.69;107581;1254;109680;-63
2023/10/15 04:11:50;;;;;;;12.70;5.20;;;;;;;13.45;70.33;100426.61;107560;1251;97942;-63
2023/10/15 04:14:28;;;;;;;8.20;2.60;;;;;;;13.42;70.36;100427.25;107572;1253;98470;-63
2023/10/15 04:16:59;;;;;;;8.70;2.50;;;;;;;13.40;70.49;100423.55;107570;1254;112266;-64
2023/10/15 04:19:29;;;;;;;9.10;2.70;;;;;;;13.38;70.51;100421.17;107571;1252;109058;-63
2023/10/15 04:22:00;;;;;;;5.70;3.00;;;;;;;13.37;70.50;100422.59;107608;1254;108271;-63
2023/10/15 04:24:36;;;;;;;6.20;2.50;;;;;;;13.33;70.36;100423.37;107583;1255;97887;-63
2023/10/15 04:27:26;;;;;;;11.70;2.80;;;;;;;13.28;70.29;100418.64;107593;1254;97793;-63
2023/10/15 04:29:55;;;;;;;4.70;2.60;;;;;;;13.24;70.28;100418.56;107590;1254;111880;-63
2023/10/15 04:32:45;;;;;;;10.50;2.80;;;;;;;13.20;70.28;100416.39;107563;1254;109149;-63
2023/10/15 04:35:18;;;;;;;8.10;3.30;;;;;;;13.17;70.38;100421.03;107569;1254;107820;-63
2023/10/15 04:37:52;;;;;;;8.70;2.80;;;;;;;13.15;70.42;100418.76;107589;1253;97832;-63
2023/10/15 04:40:23;;;;;;;8.10;3.20;;;;;;;13.12;70.37;100419.22;107581;1254;97919;-64
2023/10/15 04:42:52;;;;;;;8.80;2.80;;;;;;;13.10;70.43;100419.21;107581;1254;112201;-64
2023/10/15 04:45:21;;;;;;;8.90;3.10;;;;;;;13.09;70.57;100421.36;107528;1251;108707;-63
2023/10/15 04:47:59;;;;;;;8.20;2.90;;;;;;;13.09;70.76;100419.54;107583;1254;107175;-63
2023/10/15 04:50:35;;;;;;;11.00;3.00;;;;;;;13.09;70.97;100421.91;107597;1254;97855;-63
2023/10/15 04:53:23;;;;;;;12.80;2.80;;;;;;;13.10;71.08;100423.73;107598;1253;97742;-63
2023/10/15 04:55:53;;;;;;;9.40;2.70;;;;;;;13.11;71.10;100426.91;107584;1251;112136;-63
2023/10/15 04:58:27;;;;;;;11.90;3.00;;;;;;;13.10;71.01;100431.54;107541;1254;109665;-63
2023/10/15 05:00:59;;;;;;;4.90;2.70;;;;;;;13.08;70.89;100433.98;107598;1251;107167;-63
2023/10/15 05:03:27;;;;;;;5.10;2.60;;;;;;;13.09;70.90;100435.52;107596;1256;97849;-63
2023/10/15 05:06:00;;;;;;;6.80;3.00;;;;;;;13.08;70.70;100436.41;107641;1251;98418;-63
2023/10/15 05:08:28;;;;;;;8.80;3.10;;;;;;;13.06;70.71;100438.20;107621;1256;111689;-63
2023/10/15 05:10:56;;;;;;;11.60;3.10;;;;;;;13.06;70.97;100438.96;107600;1251;110537;-63
2023/10/15 05:13:25;;;;;;;12.20;3.00;;;;;;;13.08;71.12;100442.90;107567;1253;108184;-62
2023/10/15 05:15:53;;;;;;;6.50;2.90;;;;;;;13.11;71.26;100442.20;107551;1251;97954;-64
2023/10/15 05:18:21;;;;;;;7.50;2.80;;;;;;;13.15;71.51;100445.91;107622;1251;98477;-64
2023/10/15 05:20:50;;;;;;;16.10;3.90;;;;;;;13.24;71.48;100440.00;107590;1251;111920;-63
2023/10/15 05:23:19;;;;;;;10.10;3.40;;;;;;;13.30;71.56;100441.95;107580;1256;108127;-63
2023/10/15 05:25:49;;;;;;;6.50;2.70;;;;;;;13.38;71.79;100439.23;107558;1252;107103;-64
2023/10/15 05:28:19;;;;;;;13.10;3.30;;;;;;;13.47;71.96;100439.89;107521;1254;97836;-63
2023/10/15 05:30:49;;;;;;;11.90;3.60;;;;;;;13.54;72.12;100440.63;107591;1251;98469;-63
2023/10/15 05:33:18;;;;;;;11.00;3.30;;;;;;;13.60;72.16;100441.23;107626;1254;111476;-64
2023/10/15 05:35:49;;;;;;;10.20;3.10;;;;;;;13.66;72.36;100438.42;107638;1251;109743;-63
2023/10/15 05:38:17;;;;;;;8.90;3.60;;;;;;;13.72;72.41;100441.21;107579;1254;108529;-62
2023/10/15 05:40:49;;;;;;;13.00;3.30;;;;;;;13.78;72.60;100437.69;107599;1252;97945;-63
2023/10/15 05:43:18;;;;;;;9.70;3.30;;;;;;;13.85;72.77;100438.44;107574;1254;97762;-63
2023/10/15 05:45:47;;;;;;;12.30;3.80;;;;;;;13.91;72.80;100438.50;107602;1254;112256;-63
2023/10/15 05:48:18;;;;;;;17.50;3.90;;;;;;;13.97;72.86;100436.23;107598;1256;109827;-63
2023/10/15 05:50:49;;;;;;;10.40;4.00;;;;;;;14.03;73.13;100439.49;107567;1252;108563;-62
2023/10/15 05:53:18;;;;;;;9.20;3.50;;;;;;;14.09;73.19;100444.50;107552;1253;97948;-62
2023/10/15 05:55:46;;;;;;;8.60;3.50;;;;;;;14.14;73.22;100448.60;107606;1253;97686;-62
2023/10/15 05:58:15;;;;;;;12.00;3.00;;;;;;;14.20;73.44;100442.79;107612;1251;109655;-63
2023/10/15 06:00:43;;;;;;;11.10;3.20;;;;;;;14.23;73.17;100436.46;107506;1250;108591;-63
2023/10/15 06:03:12;;;;;;;13.20;3.60;;;;;;;14.28;73.54;100436.29;107525;1256;108143;-62
2023/10/15 06:05:40;;;;;;;7.50;3.00;;;;;;;14.31;73.48;100433.59;107561;1253;97868;-63
2023/10/15 06:08:08;;;;;;;11.30;3.40;;;;;;;14.37;73.71;100436.36;107600;1252;97855;-62
2023/10/15 06:10:37;;;;;;;5.70;3.10;;;;;;;14.44;73.95;100434.20;107630;1254;110718;-62
2023/10/15 06:13:05;;;;;;;13.10;4.40;;;;;;;14.49;73.90;100429.32;107569;1253;108556;-62
2023/10/15 06:15:34;;;;;;;16.30;3.80;;;;;;;14.55;74.10;100432.02;107558;1255;108832;-62
2023/10/15 06:18:02;;;;;;;11.50;3.70;;;;;;;14.63;74.15;100428.46;107571;1253;97846;-62
2023/10/15 06:20:30;;;;;;;8.90;3.40;;;;;;;14.71;74.13;100432.48;107642;1255;97932;-63
2023/10/15 06:23:03;;;;;;;9.10;3.40;;;;;;;14.79;74.30;100433.58;107550;1255;111941;-64
2023/10/15 06:25:32;;;;;;;5.60;3.20;;;;;;;14.86;74.12;100431.23;107571;1251;109658;-64
2023/10/15 06:28:02;;;;;;;11.50;3.70;;;;;;;14.93;74.09;100438.92;107608;1253;108502;-65
2023/10/15 06:30:30;;;;;;;16.70;4.00;;;;;;;14.98;73.99;100441.02;107603;1255;97847;-63
2023/10/15 06:32:59;;;;;;;11.50;3.70;;;;;;;15.05;73.98;100439.67;107598;1252;97821;-64
2023/10/15 06:35:27;;;;;;;8.90;3.50;;;;;;;15.12;73.89;100439.08;107562;1253;111933;-64
2023/10/15 06:37:57;;;;;;;8.20;3.80;;;;;;;15.17;74.07;100437.44;107629;1253;109182;-62
2023/10/15 06:40:28;;;;;;;10.50;3.40;;;;;;;15.24;74.03;100435.17;107607;1250;107086;-63
2023/10/15 06:43:00;;;;;;;16.60;3.60;;;;;;;15.32;73.97;100427.42;107580;1251;98519;-62
2023/10/15 06:45:31;;;;;;;15.50;3.70;;;;;;;15.39;73.82;100424.38;107580;1253;98367;-63
2023/10/15 06:48:02;;;;;;;11.20;3.50;;;;;;;15.45;73.71;100428.73;107655;1251;111112;-61
2023/10/15 06:50:31;;;;;;;9.60;3.80;;;;;;;15.52;73.75;100428.76;107617;1252;109468;-62
2023/10/15 06:53:01;;;;;;;10.40;3.40;;;;;;;15.59;73.67;100421.86;107605;1253;108029;-63
2023/10/15 06:55:31;;;;;;;11.90;4.00;;;;;;;15.68;73.61;100414.42;107577;1253;97942;-63
2023/10/15 06:58:01;;;;;;;5.60;3.30;;;;;;;15.75;73.40;100412.19;107588;1253;97721;-62
2023/10/15 07:00:31;;;;;;;12.00;3.30;;;;;;;15.85;73.43;100417.45;107622;1250;112286;-62
2023/10/15 07:03:00;;;;;;;9.00;3.70;;;;;;;15.92;73.32;100415.45;107648;1252;110076;-63
2023/10/15 07:05:29;;;;;;;14.00;3.40;;;;;;;16.01;73.15;100415.74;107569;1253;108182;-63
2023/10/15 07:07:57;;;;;;;15.20;4.20;;;;;;;16.10;73.13;100416.89;107590;1253;97856;-63
2023/10/15 07:10:27;;;;;;;10.80;4.00;;;;;;;16.19;72.87;100412.24;107580;1253;98383;-63
2023/10/15 07:13:01;;;;;;;12.70;4.00;;;;;;;16.29;72.52;100410.67;107601;1253;111701;-62
2023/10/15 07:15:29;;;;;;;14.30;4.70;;;;;;;16.38;72.35;100408.48;107572;1255;109200;-62
2023/10/15 07:17:58;;;;;;;14.20;3.60;;;;;;;16.47;72.21;100406.14;107599;1253;108445;-62
2023/10/15 07:20:27;;;;;;;14.30;4.70;;;;;;;16.59;72.24;100408.03;107503;1253;98438;-64
2023/10/15 07:22:59;;;;;;;11.90;4.40;;;;;;;16.69;71.80;100406.46;107599;1253;97734;-64
2023/10/15 07:25:29;;;;;;;11.70;4.20;;;;;;;16.79;71.55;100408.47;107593;1253;111118;-65
2023/10/15 07:28:00;;;;;;;10.50;4.00;;;;;;;16.92;71.31;100401.55;107577;1253;109914;-63
2023/10/15 07:30:30;;;;;;;10.00;3.70;;;;;;;17.04;71.18;100398.77;107545;1251;107366;-63
2023/10/15 07:32:59;;;;;;;15.10;3.40;;;;;;;17.17;70.72;100392.75;107573;1252;97902;-64
2023/10/15 07:35:30;;;;;;;11.50;3.70;;;;;;;17.28;70.28;100393.02;107570;1251;97671;-63
2023/10/15 07:38:02;;;;;;;7.60;3.50;;;;;;;17.40;69.64;100388.98;107603;1251;111298;-63
2023/10/15 07:40:35;;;;;;;11.90;4.30;;;;;;;17.57;69.37;100385.33;107574;1252;109881;-63
2023/10/15 07:43:04;;;;;;;11.40;3.90;;;;;;;17.73;68.72;100386.14;107626;1251;108207;-63
2023/10/15 07:45:33;;;;;;;17.60;9.10;;;;;;;17.86;68.26;100387.40;107607;1256;98618;-63
2023/10/15 07:48:03;;;;;;;17.20;8.70;;;;;;;17.98;67.66;100383.23;107458;1251;97839;-63
2023/10/15 07:50:34;;;;;;;15.00;4.40;;;;;;;18.11;67.14;100384.44;107641;1253;111997;-62
2023/10/15 07:53:04;;;;;;;12.80;4.30;;;;;;;18.22;66.38;100385.84;107625;1253;109669;-64
2023/10/15 07:55:33;;;;;;;10.90;4.20;;;;;;;18.34;65.63;100388.70;107609;1251;108296;-63
2023/10/15 07:58:03;;;;;;;7.30;3.80;;;;;;;18.44;64.82;100380.52;107534;1253;97928;-63
2023/10/15 08:00:33;;;;;;;12.90;3.70;;;;;;;18.55;64.47;100375.42;107659;1251;97852;-63
2023/10/15 08:03:04;;;;;;;11.40;3.70;;;;;;;18.67;63.98;100378.09;107607;1255;111194;-63
2023/10/15 08:05:34;;;;;;;11.10;4.30;;;;;;;18.80;63.63;100378.44;107573;1252;109106;-62
2023/10/15 08:08:04;;;;;;;15.50;5.00;;;;;;;18.95;62.85;100380.34;107516;1251;108246;-63
2023/10/15 08:10:34;;;;;;;9.10;3.80;;;;;;;19.10;62.52;100384.37;107567;1253;98529;-63
2023/10/15 08:13:09;;;;;;;15.60;4.60;;;;;;;19.26;61.76;100382.67;107596;1253;97858;-63
2023/10/15 08:15:38;;;;;;;19.40;5.20;;;;;;;19.42;60.82;100381.86;107651;1255;112352;-63
2023/10/15 08:18:07;;;;;;;11.40;4.00;;;;;;;19.61;61.11;100378.98;107555;1253;109170;-63
2023/10/15 08:20:36;;;;;;;12.00;3.70;;;;;;;19.82;60.48;100377.79;107565;1253;108410;-63
2023/10/15 08:23:04;;;;;;;15.10;4.50;;;;;;;20.01;59.63;100383.96;107580;1251;97825;-64
2023/10/15 08:25:33;;;;;;;14.50;6.40;;;;;;;20.18;58.06;100388.73;107616;1251;98444;-64
2023/10/15 08:28:03;;;;;;;19.80;9.40;;;;;;;20.37;57.33;100387.85;107579;1253;111478;-64
2023/10/15 08:30:32;;;;;;;13.10;5.50;;;;;;;20.59;56.98;100386.40;107610;1251;108665;-64
2023/10/15 08:33:03;;;;;;;15.90;5.70;;;;;;;20.83;56.63;100387.41;107616;1251;108811;-63
2023/10/15 08:35:32;;;;;;;15.40;6.00;;;;;;;21.06;56.12;100389.75;107602;1251;97834;-63
2023/10/15 08:38:01;;;;;;;12.60;4.40;;;;;;;21.28;54.47;100386.09;107565;1255;99554;-63
2023/10/15 08:40:32;;;;;;;18.20;4.20;;;;;;;21.51;54.45;100379.81;107628;1251;113005;-63
2023/10/15 08:43:26;;;;;;;12.20;3.10;;;;;;;21.74;52.32;100378.52;107640;1251;109128;-63
2023/10/15 08:45:58;;;;;;;20.10;4.20;;;;;;;21.94;50.20;100388.01;107599;1255;107035;-63
2023/10/15 08:48:28;;;;;;;12.90;4.50;;;;;;;22.10;49.45;100390.67;107616;1251;97859;-64
2023/10/15 08:50:58;;;;;;;14.00;7.20;;;;;;;22.34;49.97;100387.91;107578;1251;97705;-65
2023/10/15 08:53:30;;;;;;;15.20;4.40;;;;;;;22.57;47.94;100386.64;107574;1253;111323;-62
2023/10/15 08:56:01;;;;;;;17.10;4.40;;;;;;;22.81;47.97;100384.33;107570;1251;109540;-66
2023/10/15 08:58:30;;;;;;;10.80;4.50;;;;;;;23.11;47.64;100385.79;107616;1251;108125;-63
2023/10/15 09:01:00;;;;;;;19.00;4.20;;;;;;;23.59;47.27;100384.29;107446;1253;97864;-63
2023/10/15 09:03:29;;;;;;;10.90;3.80;;;;;;;24.03;44.05;100387.11;107580;1253;98378;-62
2023/10/15 09:06:01;;;;;;;16.90;4.00;;;;;;;24.73;43.54;100385.63;107582;1253;112539;-63
2023/10/15 09:08:29;;;;;;;12.10;3.40;;;;;;;25.47;42.22;100388.77;107570;1253;109728;-64
2023/10/15 09:10:57;;;;;;;12.60;3.50;;;;;;;26.12;41.62;100387.63;107561;1253;108100;-62
2023/10/15 09:13:26;;;;;;;9.30;3.00;;;;;;;26.73;40.49;100388.78;107604;1253;97710;-63
2023/10/15 09:15:57;;;;;;;11.10;5.20;;;;;;;27.17;37.77;100383.86;107577;1252;98361;-65
2023/10/15 09:18:26;;;;;;;19.40;4.30;;;;;;;27.15;35.78;100385.16;107632;1253;112123;-64
2023/10/15 09:20:58;;;;;;;9.10;4.40;;;;;;;27.45;36.29;100383.23;107626;1253;109864;-64
2023/10/15 09:23:31;;;;;;;15.70;4.40;;;;;;;27.94;36.14;100377.79;107588;1253;107650;-62
2023/10/15 09:25:59;;;;;;;13.10;3.30;;;;;;;28.56;36.28;100372.05;107587;1252;97840;-62
2023/10/15 09:28:28;;;;;;;13.50;4.40;;;;;;;29.20;33.71;100368.81;107611;1251;97846;-63
2023/10/15 09:31:09;;;;;;;16.70;6.20;;;;;;;29.48;33.99;100367.21;107582;1254;111074;-63
2023/10/15 09:33:39;;;;;;;14.30;4.00;;;;;;;30.06;34.36;100365.77;107579;1253;108332;-63
2023/10/15 09:36:08;;;;;;;16.40;3.60;;;;;;;30.58;32.80;100366.75;107556;1251;107577;-64
2023/10/15 09:38:37;;;;;;;14.50;3.50;;;;;;;30.51;30.22;100367.64;107561;1253;97835;-65
2023/10/15 09:41:05;;;;;;;17.20;4.40;;;;;;;30.61;32.13;100357.92;107615;1252;97931;-64
2023/10/15 09:43:37;;;;;;;10.30;3.50;;;;;;;30.66;32.22;100361.73;107619;1251;111954;-62
2023/10/15 09:46:06;;;;;;;12.70;3.60;;;;;;;30.96;31.42;100361.10;107580;1253;109807;-64
2023/10/15 09:48:37;;;;;;;10.30;4.10;;;;;;;31.33;29.66;100358.80;107538;1253;108248;-64
2023/10/15 09:51:09;;;;;;;12.00;3.40;;;;;;;31.56;29.86;100358.06;107586;1253;98478;-63
2023/10/15 09:53:41;;;;;;;15.80;3.80;;;;;;;31.95;29.66;100356.09;107582;1251;97723;-64
2023/10/15 09:56:12;;;;;;;15.40;2.80;;;;;;;32.52;28.62;100353.70;107633;1251;109992;-65
2023/10/15 09:58:43;;;;;;;10.60;3.90;;;;;;;32.80;27.94;100349.59;107570;1252;110034;-64
2023/10/15 10:01:25;;;;;;;16.00;3.50;;;;;;;32.79;26.70;100353.08;107530;1253;107806;-63
2023/10/15 10:04:23;;;;;;;11.40;3.30;;;;;;;32.83;27.56;100347.70;107621;1252;97968;-64
2023/10/15 10:07:05;;;;;;;12.80;3.80;;;;;;;32.99;26.57;100347.40;107570;1253;98402;-64
2023/10/15 10:09:47;;;;;;;12.70;3.60;;;;;;;32.32;26.26;100349.93;107633;1251;111046;-64
2023/10/15 10:12:43;;;;;;;18.50;4.10;;;;;;;31.68;27.20;100347.31;107231;1252;461684;-64
2023/10/15 10:15:54;;;;;;;16.70;3.60;;;;;;;31.91;27.77;100339.52;107602;1255;108840;-64
2023/10/15 10:18:24;;;;;;;7.40;3.00;;;;;;;32.01;27.58;100334.29;107646;1251;97890;-63
2023/10/15 10:20:55;;;;;;;10.70;3.30;;;;;;;31.67;27.67;100335.42;107590;1253;98595;-63
2023/10/15 10:23:24;;;;;;;11.90;4.90;;;;;;;31.16;27.89;100341.48;107674;1253;112100;-64
2023/10/15 10:26:14;;;;;;;12.80;3.90;;;;;;;30.09;28.27;100342.34;107594;1253;110076;-64
2023/10/15 10:28:42;;;;;;;19.60;4.30;;;;;;;29.19;29.37;100339.85;107578;1253;108246;-64
2023/10/15 10:31:13;;;;;;;12.40;4.10;;;;;;;28.42;30.36;100336.14;107600;1253;97810;-64
2023/10/15 10:33:44;;;;;;;20.10;4.20;;;;;;;27.64;31.22;100333.28;107579;1253;97843;-64
2023/10/15 10:36:37;;;;;;;27.50;4.70;;;;;;;27.40;32.10;100334.05;107615;1253;112044;-63
2023/10/15 10:39:11;;;;;;;15.20;3.90;;;;;;;26.99;32.77;100329.92;107445;1253;109898;-64
2023/10/15 10:41:41;;;;;;;14.60;4.20;;;;;;;26.51;33.42;100332.01;107592;1253;107530;-64
2023/10/15 10:44:34;;;;;;;16.40;4.40;;;;;;;26.31;34.04;100326.15;107599;1253;97818;-64
2023/10/15 10:47:18;;;;;;;13.20;4.30;;;;;;;26.28;33.83;100320.20;107567;1252;97733;-63
2023/10/15 10:50:03;;;;;;;14.60;4.20;;;;;;;26.17;34.56;100321.63;107605;1255;110248;-64
2023/10/15 10:52:37;;;;;;;13.80;4.00;;;;;;;26.01;34.69;100322.45;107608;1253;108669;-63
2023/10/15 10:55:31;;;;;;;20.00;4.90;;;;;;;25.74;34.87;100320.55;107592;1253;107736;-63
2023/10/15 10:58:08;;;;;;;23.70;5.40;;;;;;;25.64;35.35;100325.61;107646;1253;97716;-64
2023/10/15 11:00:37;;;;;;;17.90;4.00;;;;;;;25.59;35.67;100325.35;107625;1252;97990;-63
2023/10/15 11:03:06;;;;;;;17.50;5.20;;;;;;;25.49;35.81;100325.02;107548;1253;112623;-63
2023/10/15 11:05:36;;;;;;;16.20;4.30;;;;;;;25.44;36.24;100323.52;107600;1253;109701;-65
2023/10/15 11:08:16;;;;;;;25.90;5.80;;;;;;;25.26;36.51;100327.52;107618;1251;108770;-64
2023/10/15 11:10:48;;;;;;;10.60;4.80;;;;;;;25.02;36.86;100329.45;107590;1253;97867;-63
2023/10/15 11:13:16;;;;;;;19.70;6.10;;;;;;;24.86;37.05;100327.42;107657;1251;97726;-63
2023/10/15 11:15:51;;;;;;;17.40;5.60;;;;;;;24.60;37.37;100325.40;107560;1253;111780;-64
2023/10/15 11:18:24;;;;;;;13.90;5.20;;;;;;;24.35;37.80;100326.02;107595;1255;109732;-63
2023/10/15 11:20:52;;;;;;;15.50;5.10;;;;;;;24.14;38.37;100324.44;107615;1253;107877;-63
2023/10/15 11:23:24;;;;;;;10.40;4.30;;;;;;;23.93;38.63;100325.27;107576;1251;97826;-65
2023/10/15 11:25:56;;;;;;;13.90;4.90;;;;;;;23.79;39.24;100325.30;107648;1253;97815;-64
2023/10/15 11:28:25;;;;;;;17.90;5.10;;;;;;;23.62;39.50;100329.20;107666;1251;113457;-65
2023/10/15 11:30:55;;;;;;;16.50;5.10;;;;;;;23.45;39.83;100327.70;107584;1253;109674;-63
2023/10/15 11:33:24;;;;;;;12.50;4.60;;;;;;;23.39;39.95;100329.02;107574;1255;107905;-65
2023/10/15 11:35:55;;;;;;;19.40;4.10;;;;;;;23.32;40.40;100330.25;107586;1255;97944;-65
2023/10/15 11:38:32;;;;;;;9.30;3.70;;;;;;;23.13;40.72;100330.59;107644;1251;98380;-62